Donnellson, IA

8:14 AM CDT on September 30, 2016 (GMT -0500)
Lang Enterprises | | Change Station
Active Advisory: Flood Warning

Elev 689 ft 40.68 °N, 91.57 °W | Updated 28 seconds ago

Clear
Clear
53.9 °F
Feels Like 53.9 °F
N
0.0
Wind Variable Wind from NNE
Gusts 3.0 mph

Today
High -- | Low -- °F
--% Chance of Precip.
Yesterday
High -- | Low -- °F
Precip. -- in
Pressure 30.19 in
Visibility 7.0 miles
Clouds Clear
Dew Point 52 °F
Humidity 94%
Rainfall 0.00 in
Snow Depth Not available.
7:02 AM 6:49 PM
Waning Crescent, 0% visible
METAR KFSW 301255Z AUTO 35003KT 7SM CLR 12/11 A3019 RMK AO2
Pressure 30.19 in
Visibility 7.0 miles
Clouds Clear
Dew Point 52 °F
Humidity 94%
Rainfall 0.00 in
Snow Depth Not available.
7:02 AM 6:49 PM
Waning Crescent, 0% visible
METAR KFSW 301255Z AUTO 35003KT 7SM CLR 12/11 A3019 RMK AO2

10-Day Weather Forecast

Almanac

Astronomy

Sep. 30, 2016 Rise Set
Actual Time
Civil Twilight
Nautical Twilight
Astronomical Twilight
Moon
Length of Visible Light
Length of Day
Tomorrow will be .
, % of the Moon is Illuminated

Today's Extremes

State Highs State Lows

Community

WunderPhotos

Upload Photos

1,942,708 photos uploaded!

WunderBlog® & News

Nearby

Air Quality

  Air Quality AQ Index Pollutant
Not available.

Snow Depth

Station Depth Elevation

Earthquake Activity

City Distance Mag. Time & Date
Minimum magnitude displayed is 2.5.

Coastal Water Temperatures

Place Temperature

Stations

Nearby Weather Stations

Station Location Temp. Windchill Dew Point Humidity Wind Precip. Elev Updated Type
                   

Watches & Warnings

Flood Warning
Issued: 4:00 AM CDT Sep. 30, 2016 – National Weather Service

... Flood Warning remains in effect until Thursday morning...

The Flood Warning continues for
the Mississippi River at Keokuk ld19.
* Until Thursday morning.
* At 3:00 am Friday the stage was 15.0 feet.
* Flood stage is 16.0 feet.
* No flooding is occurring and moderate flooding is forecast.
* Forecast... rise above flood stage late this morning... and continue
rising to 7.5 feet Sunday morning. Fall below flood stage Thursday morning.
* Impact... at 16.0 feet... water affects low lying buildings in rural
areas. Water affects the Railroad tracks in Alexandria.


Lat... Lon 4035 9150 4034 9144 4038 9134 4061 9130
      4061 9142




400 am CDT Fri Sep 30 2016

... Flood Warning remains in effect until further notice...

The Flood Warning continues for
the Mississippi River at Burlington.
* Until further notice.
* At 3:00 am Friday the stage was 17.4 feet... and rising.
* Flood stage is 15.0 feet.
* Moderate flooding is occurring and major flooding is forecast.
* Forecast... rise to 19.3 feet Sunday morning... then begin falling.
* Impact... at 19.0 feet... water causes access problems to
a restaurant along the river. Water also GOES over the new sea wall
on the riverfront. Water affects streets bordering the river in
Pontoosuc.


Lat... Lon 4086 9110 4067 9118 4061 9142 4062 9108
      4084 9105